Allendale, Indiana
Current Conditions -  °F | °C
As of 1:22 PM on Sunday 25 Jan 2015 (Local Time) from KHUF Reporting Station
Haze Haze  
Wind Chill: 33°   Ceiling: 500
Heat Index: 38°   Visibility: 2.5mi
Dew Point: 36°   Wind: 7mph
Humidity: 93%   Direction: 140°SE
Pressure: 29.62"   Gusts: NA
Location:  39.3587°N, 87.4056°W
Report Text: KHUF 251822Z 14006KT 2 1/2SM BR BKN005 OVC011 03/02 A2962 RMK AO2 CIG 003V007 T00330022
Loading
Personal Weather Stations






























Interactive Weather Map New forecast layout! Learn more

10-Day Weather Forecast

Advertisements
Track Severe Weather on mobile